Terminal Aerodrome Forecast
Issued by NWS

Home | Current Version | Previous Version | Text Only | Print | Product List | Glossary On
Versions: 1 2 3 4 5 6 7 8 9 10 11 12 13 14 15 16 17 18 19 20
894
FTUS43 KLSX 091633 AAB
TAFSUS
TAF AMD
KSUS 091633Z 0917/1012 30015G25KT P6SM SCT025 OVC035
      TEMPO 0917/0919 5SM -SN BR OVC030
     FM091900 31015KT P6SM OVC035
     FM100600 31015KT P6SM SCT250=

USA.gov is the U.S. government's official web portal to all federal, state and local government web resources and services.